Terminal Aerodrome Forecast
Issued by NWS

Current Version | Previous Version | Graphics & Text | Print | Product List | Glossary On
Versions: 1 2 3 4 5 6 7 8 9 10 11 12 13 14 15 16 17 18 19
432
FTUS41 KILN 291738
TAFLUK
TAF
KLUK 291738Z 2918/3018 18007KT P6SM SCT045
      TEMPO 2922/2923 VRB10G18KT -TSRA BKN035CB
     FM292300 24005KT P6SM VCSH BKN040
     FM300200 24004KT P6SM SCT050
     FM301400 33005KT P6SM FEW050=

USA.gov is the U.S. government's official web portal to all federal, state and local government web resources and services.